Bell Canyon, California
Current Conditions -  °F | °C
As of 11:51 AM on Wednesday 17 Dec 2014 (Local Time) from KVNY Reporting Station
Broken Clouds Broken Clouds  
Wind Chill: 59°   Ceiling: 4500
Heat Index: 59°   Visibility: 10mi
Dew Point: 45°   Wind: 5mph
Humidity: 60%   Direction: NA
Pressure: 30.04"   Gusts: NA
Location:  34.2068°N, 118.679°W
Report Text: KVNY 171951Z VRB04KT 10SM SCT034 BKN045 15/07 A3004 RMK AO2 SLP169 T01500072
Loading
Personal Weather Stations






























Interactive Weather Map New forecast layout! Learn more

10-Day Weather Forecast

Advertisements
Track Severe Weather on mobile